sensor_id;sensor_type;location;lat;lon;timestamp;temperature;humidity
14378;DHT22;7272;53.668;9.578;2023-06-22T00:02:11;17.60;99.90
14378;DHT22;7272;53.668;9.578;2023-06-22T00:05:12;17.50;99.90
14378;DHT22;7272;53.668;9.578;2023-06-22T00:08:14;17.50;99.90
14378;DHT22;7272;53.668;9.578;2023-06-22T00:11:15;17.40;99.90
14378;DHT22;7272;53.668;9.578;2023-06-22T00:14:16;17.40;99.90
14378;DHT22;7272;53.668;9.578;2023-06-22T00:17:18;17.40;99.90
14378;DHT22;7272;53.668;9.578;2023-06-22T00:20:19;17.30;99.90
14378;DHT22;7272;53.668;9.578;2023-06-22T00:23:20;17.30;99.90
14378;DHT22;7272;53.668;9.578;2023-06-22T00:26:24;17.20;99.90
14378;DHT22;7272;53.668;9.578;2023-06-22T00:29:25;17.20;99.90
14378;DHT22;7272;53.668;9.578;2023-06-22T00:32:27;17.20;99.90
14378;DHT22;7272;53.668;9.578;2023-06-22T00:35:28;17.40;99.90
14378;DHT22;7272;53.668;9.578;2023-06-22T00:38:29;17.40;99.90
14378;DHT22;7272;53.668;9.578;2023-06-22T00:41:31;17.40;99.90
14378;DHT22;7272;53.668;9.578;2023-06-22T00:44:32;17.30;99.90
14378;DHT22;7272;53.668;9.578;2023-06-22T00:47:34;17.40;99.90
14378;DHT22;7272;53.668;9.578;2023-06-22T00:50:39;17.30;99.90
14378;DHT22;7272;53.668;9.578;2023-06-22T00:53:40;17.20;99.90
14378;DHT22;7272;53.668;9.578;2023-06-22T00:56:44;17.20;99.90
14378;DHT22;7272;53.668;9.578;2023-06-22T00:59:48;17.20;99.90
14378;DHT22;7272;53.668;9.578;2023-06-22T01:02:50;17.20;99.90
14378;DHT22;7272;53.668;9.578;2023-06-22T01:05:54;17.20;99.90
14378;DHT22;7272;53.668;9.578;2023-06-22T01:09:00;17.20;99.90
14378;DHT22;7272;53.668;9.578;2023-06-22T01:12:06;17.20;99.90
14378;DHT22;7272;53.668;9.578;2023-06-22T01:15:10;17.20;99.90
14378;DHT22;7272;53.668;9.578;2023-06-22T01:18:14;17.10;99.90
14378;DHT22;7272;53.668;9.578;2023-06-22T01:21:21;17.10;99.90
14378;DHT22;7272;53.668;9.578;2023-06-22T01:24:26;17.10;99.90
14378;DHT22;7272;53.668;9.578;2023-06-22T01:27:36;17.10;99.90
14378;DHT22;7272;53.668;9.578;2023-06-22T01:30:45;17.20;99.90
14378;DHT22;7272;53.668;9.578;2023-06-22T01:33:57;17.30;99.90
14378;DHT22;7272;53.668;9.578;2023-06-22T01:36:59;17.30;99.90
14378;DHT22;7272;53.668;9.578;2023-06-22T01:40:05;17.40;99.90
14378;DHT22;7272;53.668;9.578;2023-06-22T01:43:07;17.40;99.90
14378;DHT22;7272;53.668;9.578;2023-06-22T01:46:12;17.40;99.90
14378;DHT22;7272;53.668;9.578;2023-06-22T01:49:13;17.40;99.90
14378;DHT22;7272;53.668;9.578;2023-06-22T01:52:15;17.40;99.90
14378;DHT22;7272;53.668;9.578;2023-06-22T01:55:16;17.30;99.90
14378;DHT22;7272;53.668;9.578;2023-06-22T01:58:20;17.30;99.90
14378;DHT22;7272;53.668;9.578;2023-06-22T02:01:26;17.30;99.90
14378;DHT22;7272;53.668;9.578;2023-06-22T02:04:34;17.30;99.90
14378;DHT22;7272;53.668;9.578;2023-06-22T02:07:41;17.30;99.90
14378;DHT22;7272;53.668;9.578;2023-06-22T02:10:44;17.30;99.90
14378;DHT22;7272;53.668;9.578;2023-06-22T02:13:49;17.20;99.90
14378;DHT22;7272;53.668;9.578;2023-06-22T02:16:51;17.10;99.90
14378;DHT22;7272;53.668;9.578;2023-06-22T02:19:52;17.20;99.90
14378;DHT22;7272;53.668;9.578;2023-06-22T02:22:54;17.30;99.90
14378;DHT22;7272;53.668;9.578;2023-06-22T02:25:55;17.30;99.90
14378;DHT22;7272;53.668;9.578;2023-06-22T02:28:58;17.30;99.90
14378;DHT22;7272;53.668;9.578;2023-06-22T02:32:00;17.30;99.90
14378;DHT22;7272;53.668;9.578;2023-06-22T02:35:02;17.20;99.90
14378;DHT22;7272;53.668;9.578;2023-06-22T02:38:05;17.20;99.90
14378;DHT22;7272;53.668;9.578;2023-06-22T02:41:06;17.20;99.90
14378;DHT22;7272;53.668;9.578;2023-06-22T02:44:07;17.20;99.90
14378;DHT22;7272;53.668;9.578;2023-06-22T02:47:09;17.20;99.90
14378;DHT22;7272;53.668;9.578;2023-06-22T02:50:12;17.10;99.90
14378;DHT22;7272;53.668;9.578;2023-06-22T02:53:13;17.10;99.90
14378;DHT22;7272;53.668;9.578;2023-06-22T02:56:19;17.10;99.90
14378;DHT22;7272;53.668;9.578;2023-06-22T02:59:25;17.10;99.90
14378;DHT22;7272;53.668;9.578;2023-06-22T03:02:35;17.30;99.90
14378;DHT22;7272;53.668;9.578;2023-06-22T03:05:36;17.30;99.90
14378;DHT22;7272;53.668;9.578;2023-06-22T03:08:38;17.30;99.90
14378;DHT22;7272;53.668;9.578;2023-06-22T03:11:39;17.30;99.90
14378;DHT22;7272;53.668;9.578;2023-06-22T03:14:40;17.20;99.90
14378;DHT22;7272;53.668;9.578;2023-06-22T03:17:42;17.20;99.90
14378;DHT22;7272;53.668;9.578;2023-06-22T03:20:44;17.20;99.90
14378;DHT22;7272;53.668;9.578;2023-06-22T03:23:45;17.30;99.90
14378;DHT22;7272;53.668;9.578;2023-06-22T03:26:46;17.30;99.90
14378;DHT22;7272;53.668;9.578;2023-06-22T03:29:47;17.20;99.90
14378;DHT22;7272;53.668;9.578;2023-06-22T03:32:49;17.10;99.90
14378;DHT22;7272;53.668;9.578;2023-06-22T03:35:50;17.10;99.90
14378;DHT22;7272;53.668;9.578;2023-06-22T03:38:52;17.00;99.90
14378;DHT22;7272;53.668;9.578;2023-06-22T03:41:53;17.10;99.90
14378;DHT22;7272;53.668;9.578;2023-06-22T03:44:54;17.20;99.90
14378;DHT22;7272;53.668;9.578;2023-06-22T03:47:56;17.40;99.90
14378;DHT22;7272;53.668;9.578;2023-06-22T03:50:59;17.30;99.90
14378;DHT22;7272;53.668;9.578;2023-06-22T03:54:00;17.30;99.90
14378;DHT22;7272;53.668;9.578;2023-06-22T03:57:02;17.20;99.90
14378;DHT22;7272;53.668;9.578;2023-06-22T04:00:04;17.10;99.90
14378;DHT22;7272;53.668;9.578;2023-06-22T04:03:14;17.10;99.90
14378;DHT22;7272;53.668;9.578;2023-06-22T04:06:15;17.10;99.90
14378;DHT22;7272;53.668;9.578;2023-06-22T04:09:17;17.40;99.90
14378;DHT22;7272;53.668;9.578;2023-06-22T04:12:18;17.40;99.90
14378;DHT22;7272;53.668;9.578;2023-06-22T04:15:19;17.40;99.90
14378;DHT22;7272;53.668;9.578;2023-06-22T04:18:21;17.50;99.90
14378;DHT22;7272;53.668;9.578;2023-06-22T04:21:22;17.60;99.90
14378;DHT22;7272;53.668;9.578;2023-06-22T04:24:23;17.70;99.90
14378;DHT22;7272;53.668;9.578;2023-06-22T04:27:25;17.80;99.90
14378;DHT22;7272;53.668;9.578;2023-06-22T04:30:26;18.00;99.90
14378;DHT22;7272;53.668;9.578;2023-06-22T04:33:28;18.10;99.90
14378;DHT22;7272;53.668;9.578;2023-06-22T04:36:30;18.10;99.90
14378;DHT22;7272;53.668;9.578;2023-06-22T04:39:31;18.20;99.90
14378;DHT22;7272;53.668;9.578;2023-06-22T04:42:34;18.20;99.90
14378;DHT22;7272;53.668;9.578;2023-06-22T04:45:35;18.20;99.90
14378;DHT22;7272;53.668;9.578;2023-06-22T04:48:39;18.30;99.90
14378;DHT22;7272;53.668;9.578;2023-06-22T04:51:41;18.40;99.90
14378;DHT22;7272;53.668;9.578;2023-06-22T04:54:46;18.40;99.90
14378;DHT22;7272;53.668;9.578;2023-06-22T04:57:48;18.50;99.90
14378;DHT22;7272;53.668;9.578;2023-06-22T05:00:50;18.50;99.90
14378;DHT22;7272;53.668;9.578;2023-06-22T05:03:53;18.60;99.90
14378;DHT22;7272;53.668;9.578;2023-06-22T05:06:56;18.60;99.90
14378;DHT22;7272;53.668;9.578;2023-06-22T05:09:57;18.80;99.90
14378;DHT22;7272;53.668;9.578;2023-06-22T05:12:58;19.00;99.90
14378;DHT22;7272;53.668;9.578;2023-06-22T05:15:59;19.10;99.90
14378;DHT22;7272;53.668;9.578;2023-06-22T05:19:03;19.10;99.90
14378;DHT22;7272;53.668;9.578;2023-06-22T05:22:04;19.20;99.90
14378;DHT22;7272;53.668;9.578;2023-06-22T05:25:09;19.20;99.90
14378;DHT22;7272;53.668;9.578;2023-06-22T05:28:11;19.40;99.90
14378;DHT22;7272;53.668;9.578;2023-06-22T05:31:13;19.40;99.90
14378;DHT22;7272;53.668;9.578;2023-06-22T05:34:15;19.60;99.90
14378;DHT22;7272;53.668;9.578;2023-06-22T05:37:16;19.70;99.90
14378;DHT22;7272;53.668;9.578;2023-06-22T05:40:17;19.70;99.90
14378;DHT22;7272;53.668;9.578;2023-06-22T05:43:19;19.70;99.90
14378;DHT22;7272;53.668;9.578;2023-06-22T05:46:20;19.80;99.90
14378;DHT22;7272;53.668;9.578;2023-06-22T05:49:22;19.70;99.90
14378;DHT22;7272;53.668;9.578;2023-06-22T05:52:24;19.70;99.90
14378;DHT22;7272;53.668;9.578;2023-06-22T05:55:26;19.90;99.90
14378;DHT22;7272;53.668;9.578;2023-06-22T05:58:27;20.00;99.90
14378;DHT22;7272;53.668;9.578;2023-06-22T06:01:28;20.00;99.90
14378;DHT22;7272;53.668;9.578;2023-06-22T06:04:32;20.00;99.90
14378;DHT22;7272;53.668;9.578;2023-06-22T06:07:33;20.00;99.90
14378;DHT22;7272;53.668;9.578;2023-06-22T06:10:35;20.00;99.90
14378;DHT22;7272;53.668;9.578;2023-06-22T06:13:36;20.10;99.90
14378;DHT22;7272;53.668;9.578;2023-06-22T06:16:37;20.10;99.90
14378;DHT22;7272;53.668;9.578;2023-06-22T06:19:39;20.10;99.90
14378;DHT22;7272;53.668;9.578;2023-06-22T06:22:41;20.20;99.90
14378;DHT22;7272;53.668;9.578;2023-06-22T06:25:43;20.20;99.90
14378;DHT22;7272;53.668;9.578;2023-06-22T06:28:45;20.30;99.90
14378;DHT22;7272;53.668;9.578;2023-06-22T06:31:47;20.40;99.90
14378;DHT22;7272;53.668;9.578;2023-06-22T06:34:49;20.50;99.90
14378;DHT22;7272;53.668;9.578;2023-06-22T06:37:50;20.60;99.90
14378;DHT22;7272;53.668;9.578;2023-06-22T06:40:52;20.80;99.90
14378;DHT22;7272;53.668;9.578;2023-06-22T06:43:53;20.90;99.90
14378;DHT22;7272;53.668;9.578;2023-06-22T06:46:54;21.00;99.90
14378;DHT22;7272;53.668;9.578;2023-06-22T06:49:56;21.20;99.90
14378;DHT22;7272;53.668;9.578;2023-06-22T06:52:57;21.30;99.90
14378;DHT22;7272;53.668;9.578;2023-06-22T06:55:59;21.40;99.90
14378;DHT22;7272;53.668;9.578;2023-06-22T06:59:01;21.60;99.90
14378;DHT22;7272;53.668;9.578;2023-06-22T07:02:02;21.70;99.90
14378;DHT22;7272;53.668;9.578;2023-06-22T07:05:08;22.00;99.90
14378;DHT22;7272;53.668;9.578;2023-06-22T07:08:09;22.10;99.90
14378;DHT22;7272;53.668;9.578;2023-06-22T07:11:11;22.20;99.90
14378;DHT22;7272;53.668;9.578;2023-06-22T07:14:12;22.30;99.90
14378;DHT22;7272;53.668;9.578;2023-06-22T07:17:14;22.50;99.90
14378;DHT22;7272;53.668;9.578;2023-06-22T07:20:15;22.70;99.90
14378;DHT22;7272;53.668;9.578;2023-06-22T07:23:17;22.80;99.90
14378;DHT22;7272;53.668;9.578;2023-06-22T07:26:18;22.90;99.90
14378;DHT22;7272;53.668;9.578;2023-06-22T07:29:20;23.00;99.90
14378;DHT22;7272;53.668;9.578;2023-06-22T07:32:21;23.20;99.90
14378;DHT22;7272;53.668;9.578;2023-06-22T07:35:23;23.20;99.90
14378;DHT22;7272;53.668;9.578;2023-06-22T07:38:24;23.20;99.90
14378;DHT22;7272;53.668;9.578;2023-06-22T07:41:25;23.30;99.90
14378;DHT22;7272;53.668;9.578;2023-06-22T07:44:27;23.50;99.90
14378;DHT22;7272;53.668;9.578;2023-06-22T07:47:28;23.70;99.90
14378;DHT22;7272;53.668;9.578;2023-06-22T07:50:30;23.90;99.90
14378;DHT22;7272;53.668;9.578;2023-06-22T07:53:31;24.00;99.90
14378;DHT22;7272;53.668;9.578;2023-06-22T07:56:33;24.00;99.90
14378;DHT22;7272;53.668;9.578;2023-06-22T07:59:34;24.10;99.90
14378;DHT22;7272;53.668;9.578;2023-06-22T08:02:35;24.20;99.90
14378;DHT22;7272;53.668;9.578;2023-06-22T08:05:37;24.30;99.90
14378;DHT22;7272;53.668;9.578;2023-06-22T08:08:38;24.40;99.90
14378;DHT22;7272;53.668;9.578;2023-06-22T08:11:39;24.50;99.90
14378;DHT22;7272;53.668;9.578;2023-06-22T08:14:42;24.80;99.90
14378;DHT22;7272;53.668;9.578;2023-06-22T08:17:44;25.00;99.90
14378;DHT22;7272;53.668;9.578;2023-06-22T08:20:46;25.20;99.90
14378;DHT22;7272;53.668;9.578;2023-06-22T08:23:47;25.50;99.90
14378;DHT22;7272;53.668;9.578;2023-06-22T08:26:51;25.60;99.90
14378;DHT22;7272;53.668;9.578;2023-06-22T08:29:52;25.70;99.90
14378;DHT22;7272;53.668;9.578;2023-06-22T08:32:58;26.00;99.90
14378;DHT22;7272;53.668;9.578;2023-06-22T08:36:00;26.30;99.90
14378;DHT22;7272;53.668;9.578;2023-06-22T08:39:01;26.40;99.90
14378;DHT22;7272;53.668;9.578;2023-06-22T08:42:04;26.70;99.90
14378;DHT22;7272;53.668;9.578;2023-06-22T08:45:06;26.90;99.90
14378;DHT22;7272;53.668;9.578;2023-06-22T08:48:07;26.90;99.90
14378;DHT22;7272;53.668;9.578;2023-06-22T08:51:09;27.10;99.90
14378;DHT22;7272;53.668;9.578;2023-06-22T08:54:10;27.10;99.90
14378;DHT22;7272;53.668;9.578;2023-06-22T08:57:11;26.90;99.90
14378;DHT22;7272;53.668;9.578;2023-06-22T09:00:14;26.70;99.90
14378;DHT22;7272;53.668;9.578;2023-06-22T09:03:18;26.80;99.90
14378;DHT22;7272;53.668;9.578;2023-06-22T09:06:21;27.20;99.90
14378;DHT22;7272;53.668;9.578;2023-06-22T09:09:23;27.50;99.90
14378;DHT22;7272;53.668;9.578;2023-06-22T09:12:24;27.80;99.90
14378;DHT22;7272;53.668;9.578;2023-06-22T09:15:27;28.00;99.90
14378;DHT22;7272;53.668;9.578;2023-06-22T09:18:29;28.20;99.90
14378;DHT22;7272;53.668;9.578;2023-06-22T09:21:31;28.60;99.90
14378;DHT22;7272;53.668;9.578;2023-06-22T09:24:32;28.80;99.90
14378;DHT22;7272;53.668;9.578;2023-06-22T09:27:33;28.90;99.90
14378;DHT22;7272;53.668;9.578;2023-06-22T09:30:34;29.00;99.90
14378;DHT22;7272;53.668;9.578;2023-06-22T09:33:36;29.00;99.90
14378;DHT22;7272;53.668;9.578;2023-06-22T09:36:41;28.60;99.90
14378;DHT22;7272;53.668;9.578;2023-06-22T09:39:42;28.60;99.90
14378;DHT22;7272;53.668;9.578;2023-06-22T09:42:43;29.00;99.90
14378;DHT22;7272;53.668;9.578;2023-06-22T09:45:44;29.30;99.90
14378;DHT22;7272;53.668;9.578;2023-06-22T09:48:46;29.50;99.90
14378;DHT22;7272;53.668;9.578;2023-06-22T09:51:47;29.70;99.90
14378;DHT22;7272;53.668;9.578;2023-06-22T09:54:50;29.80;99.90
14378;DHT22;7272;53.668;9.578;2023-06-22T09:57:51;29.90;99.90
14378;DHT22;7272;53.668;9.578;2023-06-22T10:00:53;30.10;99.90
14378;DHT22;7272;53.668;9.578;2023-06-22T10:03:55;30.20;99.90
14378;DHT22;7272;53.668;9.578;2023-06-22T10:06:58;30.20;99.90
14378;DHT22;7272;53.668;9.578;2023-06-22T10:10:01;30.10;99.90
14378;DHT22;7272;53.668;9.578;2023-06-22T10:13:08;30.00;99.90
14378;DHT22;7272;53.668;9.578;2023-06-22T10:16:09;30.10;99.90
14378;DHT22;7272;53.668;9.578;2023-06-22T10:19:11;30.00;99.90
14378;DHT22;7272;53.668;9.578;2023-06-22T10:22:13;29.90;99.90
14378;DHT22;7272;53.668;9.578;2023-06-22T10:25:14;30.20;99.90
14378;DHT22;7272;53.668;9.578;2023-06-22T10:28:15;30.50;99.90
14378;DHT22;7272;53.668;9.578;2023-06-22T10:31:16;30.60;99.90
14378;DHT22;7272;53.668;9.578;2023-06-22T10:34:18;30.70;99.90
14378;DHT22;7272;53.668;9.578;2023-06-22T10:37:20;30.60;99.90
14378;DHT22;7272;53.668;9.578;2023-06-22T10:40:21;30.70;99.90
14378;DHT22;7272;53.668;9.578;2023-06-22T10:43:22;30.70;99.90
14378;DHT22;7272;53.668;9.578;2023-06-22T10:46:24;30.70;99.90
14378;DHT22;7272;53.668;9.578;2023-06-22T10:49:25;30.80;99.90
14378;DHT22;7272;53.668;9.578;2023-06-22T10:52:27;30.70;99.90
14378;DHT22;7272;53.668;9.578;2023-06-22T10:55:28;30.40;99.90
14378;DHT22;7272;53.668;9.578;2023-06-22T10:58:30;30.50;99.90
14378;DHT22;7272;53.668;9.578;2023-06-22T11:01:31;30.70;99.90
14378;DHT22;7272;53.668;9.578;2023-06-22T11:04:34;30.70;99.90
14378;DHT22;7272;53.668;9.578;2023-06-22T11:07:37;30.60;99.90
14378;DHT22;7272;53.668;9.578;2023-06-22T11:10:38;30.70;99.90
14378;DHT22;7272;53.668;9.578;2023-06-22T11:13:39;30.80;99.90
14378;DHT22;7272;53.668;9.578;2023-06-22T11:16:41;31.10;99.90
14378;DHT22;7272;53.668;9.578;2023-06-22T11:19:42;31.20;99.90
14378;DHT22;7272;53.668;9.578;2023-06-22T11:22:44;31.20;99.90
14378;DHT22;7272;53.668;9.578;2023-06-22T11:25:45;31.20;99.90
14378;DHT22;7272;53.668;9.578;2023-06-22T11:28:47;31.10;99.90
14378;DHT22;7272;53.668;9.578;2023-06-22T11:31:48;31.10;99.90
14378;DHT22;7272;53.668;9.578;2023-06-22T11:34:49;31.30;99.90
14378;DHT22;7272;53.668;9.578;2023-06-22T11:37:51;31.50;99.90
14378;DHT22;7272;53.668;9.578;2023-06-22T11:40:52;31.30;99.90
14378;DHT22;7272;53.668;9.578;2023-06-22T11:43:53;31.40;99.90
14378;DHT22;7272;53.668;9.578;2023-06-22T11:46:55;31.40;99.90
14378;DHT22;7272;53.668;9.578;2023-06-22T11:49:56;31.40;99.90
14378;DHT22;7272;53.668;9.578;2023-06-22T11:52:58;31.40;99.90
14378;DHT22;7272;53.668;9.578;2023-06-22T11:56:00;31.60;99.90
14378;DHT22;7272;53.668;9.578;2023-06-22T11:59:02;31.70;99.90
14378;DHT22;7272;53.668;9.578;2023-06-22T12:02:03;31.90;99.90
14378;DHT22;7272;53.668;9.578;2023-06-22T12:05:06;32.00;99.90
14378;DHT22;7272;53.668;9.578;2023-06-22T12:08:09;32.00;99.90
14378;DHT22;7272;53.668;9.578;2023-06-22T12:11:10;32.00;99.90
14378;DHT22;7272;53.668;9.578;2023-06-22T12:14:11;32.00;99.90
14378;DHT22;7272;53.668;9.578;2023-06-22T12:17:13;31.80;99.90
14378;DHT22;7272;53.668;9.578;2023-06-22T12:20:16;31.60;99.90
14378;DHT22;7272;53.668;9.578;2023-06-22T12:23:18;31.60;99.90
14378;DHT22;7272;53.668;9.578;2023-06-22T12:26:20;31.80;99.90
14378;DHT22;7272;53.668;9.578;2023-06-22T12:29:22;32.00;99.90
14378;DHT22;7272;53.668;9.578;2023-06-22T12:32:23;32.10;99.90
14378;DHT22;7272;53.668;9.578;2023-06-22T12:35:24;32.10;99.90
14378;DHT22;7272;53.668;9.578;2023-06-22T12:38:26;32.10;99.90
14378;DHT22;7272;53.668;9.578;2023-06-22T12:41:27;31.80;99.90
14378;DHT22;7272;53.668;9.578;2023-06-22T12:44:29;31.60;99.90
14378;DHT22;7272;53.668;9.578;2023-06-22T12:47:30;31.60;99.90
14378;DHT22;7272;53.668;9.578;2023-06-22T12:50:31;31.80;99.90
14378;DHT22;7272;53.668;9.578;2023-06-22T12:53:33;31.70;99.90
14378;DHT22;7272;53.668;9.578;2023-06-22T12:56:34;31.80;99.90
14378;DHT22;7272;53.668;9.578;2023-06-22T12:59:36;31.90;99.90
14378;DHT22;7272;53.668;9.578;2023-06-22T13:02:37;32.10;99.90
14378;DHT22;7272;53.668;9.578;2023-06-22T13:05:38;32.10;99.90
14378;DHT22;7272;53.668;9.578;2023-06-22T13:08:40;32.10;99.90
14378;DHT22;7272;53.668;9.578;2023-06-22T13:11:41;32.10;99.90
14378;DHT22;7272;53.668;9.578;2023-06-22T13:14:42;31.70;99.90
14378;DHT22;7272;53.668;9.578;2023-06-22T13:17:44;31.50;99.90
14378;DHT22;7272;53.668;9.578;2023-06-22T13:20:45;31.30;99.90
14378;DHT22;7272;53.668;9.578;2023-06-22T13:23:47;31.30;99.90
14378;DHT22;7272;53.668;9.578;2023-06-22T13:26:48;31.20;99.90
14378;DHT22;7272;53.668;9.578;2023-06-22T13:29:50;31.00;99.90
14378;DHT22;7272;53.668;9.578;2023-06-22T13:32:51;31.10;99.90
14378;DHT22;7272;53.668;9.578;2023-06-22T13:35:52;31.30;99.90
14378;DHT22;7272;53.668;9.578;2023-06-22T13:38:54;31.50;99.90
14378;DHT22;7272;53.668;9.578;2023-06-22T13:41:55;31.60;99.90
14378;DHT22;7272;53.668;9.578;2023-06-22T13:44:56;31.60;99.90
14378;DHT22;7272;53.668;9.578;2023-06-22T13:47:57;31.40;99.90
14378;DHT22;7272;53.668;9.578;2023-06-22T13:50:59;31.10;99.90
14378;DHT22;7272;53.668;9.578;2023-06-22T13:54:00;31.00;99.90
14378;DHT22;7272;53.668;9.578;2023-06-22T13:57:02;31.00;99.90
14378;DHT22;7272;53.668;9.578;2023-06-22T14:00:04;31.10;99.90
14378;DHT22;7272;53.668;9.578;2023-06-22T14:03:12;31.00;99.90
14378;DHT22;7272;53.668;9.578;2023-06-22T14:06:16;30.90;99.90
14378;DHT22;7272;53.668;9.578;2023-06-22T14:09:18;30.80;99.90
14378;DHT22;7272;53.668;9.578;2023-06-22T14:12:19;30.60;99.90
14378;DHT22;7272;53.668;9.578;2023-06-22T14:15:21;30.60;99.90
14378;DHT22;7272;53.668;9.578;2023-06-22T14:18:22;30.50;99.90
14378;DHT22;7272;53.668;9.578;2023-06-22T14:21:23;30.60;99.90
14378;DHT22;7272;53.668;9.578;2023-06-22T14:24:25;30.60;99.90
14378;DHT22;7272;53.668;9.578;2023-06-22T14:27:26;30.60;99.90
14378;DHT22;7272;53.668;9.578;2023-06-22T14:30:28;30.60;99.90
14378;DHT22;7272;53.668;9.578;2023-06-22T14:33:29;30.70;99.90
14378;DHT22;7272;53.668;9.578;2023-06-22T14:36:30;30.90;99.90
14378;DHT22;7272;53.668;9.578;2023-06-22T14:39:32;30.80;99.90
14378;DHT22;7272;53.668;9.578;2023-06-22T14:42:33;30.60;99.90
14378;DHT22;7272;53.668;9.578;2023-06-22T14:45:34;30.40;99.90
14378;DHT22;7272;53.668;9.578;2023-06-22T14:48:35;30.10;99.90
14378;DHT22;7272;53.668;9.578;2023-06-22T14:51:36;29.90;99.90
14378;DHT22;7272;53.668;9.578;2023-06-22T14:54:38;29.80;99.90
14378;DHT22;7272;53.668;9.578;2023-06-22T14:57:39;29.70;99.90
14378;DHT22;7272;53.668;9.578;2023-06-22T15:00:41;29.50;99.90
14378;DHT22;7272;53.668;9.578;2023-06-22T15:03:42;29.40;99.90
14378;DHT22;7272;53.668;9.578;2023-06-22T15:06:43;29.20;99.90
14378;DHT22;7272;53.668;9.578;2023-06-22T15:09:46;29.00;99.90
14378;DHT22;7272;53.668;9.578;2023-06-22T15:12:47;28.90;99.90
14378;DHT22;7272;53.668;9.578;2023-06-22T15:15:49;28.90;99.90
14378;DHT22;7272;53.668;9.578;2023-06-22T15:18:50;28.80;99.90
14378;DHT22;7272;53.668;9.578;2023-06-22T15:21:51;28.80;99.90
14378;DHT22;7272;53.668;9.578;2023-06-22T15:24:53;28.60;99.90
14378;DHT22;7272;53.668;9.578;2023-06-22T15:27:54;28.50;99.90
14378;DHT22;7272;53.668;9.578;2023-06-22T15:30:55;28.50;99.90
14378;DHT22;7272;53.668;9.578;2023-06-22T15:33:57;28.40;99.90
14378;DHT22;7272;53.668;9.578;2023-06-22T15:36:58;28.30;99.90
14378;DHT22;7272;53.668;9.578;2023-06-22T15:40:00;28.20;99.90
14378;DHT22;7272;53.668;9.578;2023-06-22T15:43:01;28.10;99.90
14378;DHT22;7272;53.668;9.578;2023-06-22T15:46:03;27.90;99.90
14378;DHT22;7272;53.668;9.578;2023-06-22T15:49:04;27.70;99.90
14378;DHT22;7272;53.668;9.578;2023-06-22T15:52:06;27.60;99.90
14378;DHT22;7272;53.668;9.578;2023-06-22T15:55:08;27.60;99.90
14378;DHT22;7272;53.668;9.578;2023-06-22T15:58:10;27.50;99.90
14378;DHT22;7272;53.668;9.578;2023-06-22T16:01:13;27.40;99.90
14378;DHT22;7272;53.668;9.578;2023-06-22T16:04:14;27.30;99.90
14378;DHT22;7272;53.668;9.578;2023-06-22T16:07:15;27.10;99.90
14378;DHT22;7272;53.668;9.578;2023-06-22T16:10:17;27.20;99.90
14378;DHT22;7272;53.668;9.578;2023-06-22T16:13:20;27.00;99.90
14378;DHT22;7272;53.668;9.578;2023-06-22T16:16:21;26.90;99.90
14378;DHT22;7272;53.668;9.578;2023-06-22T16:19:22;26.80;99.90
14378;DHT22;7272;53.668;9.578;2023-06-22T16:22:24;26.80;99.90
14378;DHT22;7272;53.668;9.578;2023-06-22T16:25:26;26.90;99.90
14378;DHT22;7272;53.668;9.578;2023-06-22T16:28:27;27.00;99.90
14378;DHT22;7272;53.668;9.578;2023-06-22T16:31:28;27.00;99.90
14378;DHT22;7272;53.668;9.578;2023-06-22T16:34:29;26.90;99.90
14378;DHT22;7272;53.668;9.578;2023-06-22T16:37:31;26.90;99.90
14378;DHT22;7272;53.668;9.578;2023-06-22T16:40:33;26.80;99.90
14378;DHT22;7272;53.668;9.578;2023-06-22T16:43:34;26.90;99.90
14378;DHT22;7272;53.668;9.578;2023-06-22T16:46:35;27.00;99.90
14378;DHT22;7272;53.668;9.578;2023-06-22T16:49:36;26.90;99.90
14378;DHT22;7272;53.668;9.578;2023-06-22T16:52:38;26.80;99.90
14378;DHT22;7272;53.668;9.578;2023-06-22T16:55:40;26.70;99.90
14378;DHT22;7272;53.668;9.578;2023-06-22T16:58:42;26.70;99.90
14378;DHT22;7272;53.668;9.578;2023-06-22T17:01:49;26.70;99.90
14378;DHT22;7272;53.668;9.578;2023-06-22T17:04:52;26.60;99.90
14378;DHT22;7272;53.668;9.578;2023-06-22T17:07:58;26.40;99.90
14378;DHT22;7272;53.668;9.578;2023-06-22T17:11:01;26.30;99.90
14378;DHT22;7272;53.668;9.578;2023-06-22T17:14:02;26.20;99.90
14378;DHT22;7272;53.668;9.578;2023-06-22T17:17:03;26.10;99.90
14378;DHT22;7272;53.668;9.578;2023-06-22T17:20:06;26.00;99.90
14378;DHT22;7272;53.668;9.578;2023-06-22T17:23:08;25.90;99.90
14378;DHT22;7272;53.668;9.578;2023-06-22T17:26:10;25.80;99.90
14378;DHT22;7272;53.668;9.578;2023-06-22T17:29:12;25.80;99.90
14378;DHT22;7272;53.668;9.578;2023-06-22T17:32:13;25.70;99.90
14378;DHT22;7272;53.668;9.578;2023-06-22T17:35:15;25.80;99.90
14378;DHT22;7272;53.668;9.578;2023-06-22T17:38:20;25.80;99.90
14378;DHT22;7272;53.668;9.578;2023-06-22T17:41:31;25.80;99.90
14378;DHT22;7272;53.668;9.578;2023-06-22T17:44:32;25.70;99.90
14378;DHT22;7272;53.668;9.578;2023-06-22T17:47:35;25.60;99.90
14378;DHT22;7272;53.668;9.578;2023-06-22T17:50:39;25.60;99.90
14378;DHT22;7272;53.668;9.578;2023-06-22T17:53:47;25.50;99.90
14378;DHT22;7272;53.668;9.578;2023-06-22T17:56:50;25.40;99.90
14378;DHT22;7272;53.668;9.578;2023-06-22T17:59:51;25.40;99.90
14378;DHT22;7272;53.668;9.578;2023-06-22T18:02:53;25.30;99.90
14378;DHT22;7272;53.668;9.578;2023-06-22T18:05:55;25.30;99.90
14378;DHT22;7272;53.668;9.578;2023-06-22T18:08:57;25.30;99.90
14378;DHT22;7272;53.668;9.578;2023-06-22T18:12:04;25.20;99.90
14378;DHT22;7272;53.668;9.578;2023-06-22T18:15:07;25.00;99.90
14378;DHT22;7272;53.668;9.578;2023-06-22T18:18:08;25.10;99.90
14378;DHT22;7272;53.668;9.578;2023-06-22T18:21:10;25.00;99.90
14378;DHT22;7272;53.668;9.578;2023-06-22T18:24:13;24.80;99.90
14378;DHT22;7272;53.668;9.578;2023-06-22T18:27:15;24.70;99.90
14378;DHT22;7272;53.668;9.578;2023-06-22T18:30:17;24.70;99.90
14378;DHT22;7272;53.668;9.578;2023-06-22T18:33:18;24.70;99.90
14378;DHT22;7272;53.668;9.578;2023-06-22T18:36:23;24.80;99.90
14378;DHT22;7272;53.668;9.578;2023-06-22T18:39:25;24.70;99.90
14378;DHT22;7272;53.668;9.578;2023-06-22T18:42:28;24.60;99.90
14378;DHT22;7272;53.668;9.578;2023-06-22T18:45:30;24.50;99.90
14378;DHT22;7272;53.668;9.578;2023-06-22T18:48:33;24.40;99.90
14378;DHT22;7272;53.668;9.578;2023-06-22T18:51:50;24.30;99.90
14378;DHT22;7272;53.668;9.578;2023-06-22T18:54:52;24.20;99.90
14378;DHT22;7272;53.668;9.578;2023-06-22T18:58:14;24.10;99.90
14378;DHT22;7272;53.668;9.578;2023-06-22T19:01:17;24.00;99.90
14378;DHT22;7272;53.668;9.578;2023-06-22T19:04:19;24.00;99.90
14378;DHT22;7272;53.668;9.578;2023-06-22T19:07:58;23.90;99.90
14378;DHT22;7272;53.668;9.578;2023-06-22T19:11:11;23.80;99.90
14378;DHT22;7272;53.668;9.578;2023-06-22T19:14:19;23.80;99.90
14378;DHT22;7272;53.668;9.578;2023-06-22T19:17:20;23.80;99.90
14378;DHT22;7272;53.668;9.578;2023-06-22T19:20:31;23.70;99.90
14378;DHT22;7272;53.668;9.578;2023-06-22T19:23:34;23.60;99.90
14378;DHT22;7272;53.668;9.578;2023-06-22T19:26:36;23.60;99.90
14378;DHT22;7272;53.668;9.578;2023-06-22T19:29:39;23.50;99.90